I19

Greene County-Lewis A Jackson Regional Airport

Dayton, Ohio, USA
METAR KI19 092135Z AUTO 03003KT 10SM CLR 02/M08 A3022 RMK AO2 T00221085
Observed Flight Rules
Dec-9 @ 21:35 UTC (6 minutes ago) Visual Flight Rules
Wind Visibility Clouds
30° at 3 knots 10 miles
  • Clear skies
Temperatures Readings
Current 2°C / 36°F
Dewpoint -9°C / 16°F
Humidity 44%
Altimeter 30.22" Hg
Pressure 1023 hPa
Elevation 289
METAR KI19 092135Z AUTO 03003KT 10SM CLR 02/M08 A3022 RMK AO2 T00221085
Observed Flight Rules
Dec-9 @ 21:35 UTC
(6 minutes ago)
VFR
Wind Visibility
30° at 3 knots 10 miles
Clouds
  • Clear skies
Temperature Dewpoint
2°C / 36°F -9°C / 16°F
Humidity Altimeter Pressure
44% 30.22" Hg 1023 hPa